首页
METAR-TAF:

METAR-TAF

机场 :

Macon County Airport

富兰克林, 北卡罗来纳州, 美国

纬度: 35-13N, 经度: 083-25W, 海拔: 616米

当前天气观测

该预报发布于35分钟前的22:40 UTC
风速7节,风向,在东南南转西南之间变化
温度 12°C
湿度 82%
气压 1021 hPa
能見度: 11.3公里
多云层高于2400英尺
阴天层高于3300英尺
小雨

METAR: K1A5 262240Z AUTO 17007KT 140V210 7SM -RA BKN024 OVC033 12/09 A3016 RMK AO2 T01230091

时间: 19:15 (23:15 UTC)


TAF: 丢失

超过4000个机场的气象观测和天气预报(METAR&TAF报告)。

可查询的气象台以黄色和红色小点在地图上表示。

将鼠标移到小点上方,可查看气象台名称。

然后点击查看天气观测和预报。

如需切换地图:点击带黑十字的绿色按钮放大地图;点击带横线的绿色按钮缩小地图;或者点击绿色箭头查看邻近地区的地图。


METAR-TAF: